createdAt,value
2023-05-23T09:26:13.356Z,25.10
2023-05-23T09:29:01.943Z,25.30
2023-05-23T09:31:50.508Z,25.20
2023-05-23T09:34:42.411Z,25.10
2023-05-23T09:37:32.725Z,25.20
2023-05-23T09:40:22.799Z,25.30
2023-05-23T09:43:11.338Z,25.40
2023-05-23T09:46:02.528Z,25.50
2023-05-23T09:48:53.076Z,25.60
2023-05-23T09:51:41.554Z,25.70
2023-05-23T09:54:30.096Z,25.70
2023-05-23T09:57:23.215Z,25.70
2023-05-23T10:00:13.869Z,25.70
2023-05-23T10:03:12.493Z,25.80
2023-05-23T10:06:05.763Z,25.90
2023-05-23T10:18:10.922Z,26.30
2023-05-23T10:21:08.683Z,26.30
2023-05-23T10:23:59.180Z,26.40
2023-05-23T10:26:47.950Z,26.40
2023-05-23T10:29:37.002Z,26.50
2023-05-23T10:32:27.852Z,26.50
2023-05-23T10:35:22.643Z,26.60
2023-05-23T10:38:22.663Z,26.70
2023-05-23T10:41:14.856Z,26.80
2023-05-23T10:44:11.141Z,26.80
2023-05-23T10:47:02.214Z,27.00
2023-05-23T10:49:54.838Z,27.10
2023-05-23T10:52:44.113Z,27.20
2023-05-23T10:55:36.655Z,27.20
2023-05-23T10:58:25.341Z,27.30
2023-05-23T11:01:18.019Z,27.40
2023-05-23T11:04:07.531Z,27.50
2023-05-23T11:06:58.036Z,27.60
2023-05-23T11:10:04.730Z,27.70
2023-05-23T11:18:45.425Z,28.20
2023-05-23T11:21:34.201Z,28.30
2023-05-23T11:24:24.701Z,28.40
2023-05-23T11:27:13.829Z,28.50
2023-05-23T11:30:05.159Z,28.60
2023-05-23T11:32:55.832Z,28.70
2023-05-23T11:35:46.132Z,28.80
2023-05-23T11:38:35.425Z,28.90
2023-05-23T11:44:15.421Z,29.20
2023-05-23T11:47:04.952Z,29.40
2023-05-23T11:49:53.683Z,29.60
2023-05-23T11:52:42.325Z,29.80
2023-05-23T11:55:31.128Z,29.90
2023-05-23T11:58:21.748Z,29.90
2023-05-23T12:01:11.451Z,30.00
2023-05-23T12:04:00.115Z,30.10
2023-05-23T12:06:49.661Z,30.20
2023-05-23T12:09:44.866Z,30.30
2023-05-23T12:12:33.875Z,30.40
2023-05-23T12:15:28.524Z,30.40
2023-05-23T12:29:39.833Z,30.80
2023-05-23T12:32:29.783Z,30.80
2023-05-23T12:35:18.400Z,30.90
2023-05-23T12:38:08.718Z,30.90
2023-05-23T12:41:09.870Z,31.00
2023-05-23T12:43:58.493Z,31.00
2023-05-23T12:46:48.270Z,31.00
2023-05-23T12:49:39.520Z,31.00
2023-05-23T12:52:28.041Z,31.10
2023-05-23T12:55:16.656Z,31.30
2023-05-23T12:58:05.172Z,31.40
2023-05-23T13:00:53.741Z,31.40
2023-05-23T13:03:42.362Z,31.50
2023-05-23T13:06:33.447Z,31.50
2023-05-23T13:09:22.286Z,31.60
2023-05-23T13:12:11.020Z,31.60
2023-05-23T13:14:59.576Z,31.60
2023-05-23T13:17:50.172Z,31.70
2023-05-23T13:20:39.125Z,31.80
2023-05-23T13:23:29.585Z,31.50
2023-05-23T13:26:18.079Z,31.40
2023-05-23T13:29:06.752Z,31.30
2023-05-23T13:31:55.233Z,31.40
2023-05-23T13:34:43.755Z,31.50
2023-05-23T13:37:32.224Z,31.60
2023-05-23T13:40:23.225Z,31.60
2023-05-23T13:43:11.895Z,31.60
2023-05-23T13:46:02.016Z,31.60
2023-05-23T13:48:50.628Z,31.40
2023-05-23T13:51:39.266Z,31.20
2023-05-23T13:54:27.698Z,31.20
2023-05-23T13:57:17.583Z,31.30
2023-05-23T14:00:08.846Z,31.30
2023-05-23T14:02:57.538Z,31.30
2023-05-23T14:05:46.356Z,31.30
2023-05-23T14:08:35.173Z,31.30
2023-05-23T14:11:23.717Z,31.40
2023-05-23T14:14:13.556Z,31.40
2023-05-23T14:17:02.103Z,31.40
2023-05-23T14:19:50.649Z,31.50
2023-05-23T14:22:39.244Z,31.40
2023-05-23T14:25:27.751Z,31.30
2023-05-23T14:28:16.202Z,31.40
2023-05-23T14:31:06.705Z,31.40
2023-05-23T14:33:55.200Z,31.40
2023-05-23T14:36:43.689Z,31.40
2023-05-23T14:39:32.143Z,31.40
2023-05-23T14:42:20.608Z,31.40
2023-05-23T14:45:09.727Z,31.40
2023-05-23T14:47:59.625Z,31.20
2023-05-23T14:50:48.135Z,31.00
2023-05-23T14:53:36.651Z,30.70
2023-05-23T14:56:26.751Z,30.40
2023-05-23T14:59:15.542Z,30.30
2023-05-23T15:02:04.540Z,30.40
2023-05-23T15:04:54.431Z,30.40
2023-05-23T15:07:42.917Z,30.50
2023-05-23T15:10:31.762Z,30.50
2023-05-23T15:13:20.239Z,30.50
2023-05-23T15:16:08.930Z,30.50
2023-05-23T15:18:57.585Z,30.50
2023-05-23T15:21:51.035Z,30.50
2023-05-23T15:24:40.957Z,30.50
2023-05-23T15:27:29.653Z,30.50
2023-05-23T15:30:18.128Z,30.50
2023-05-23T15:33:07.453Z,30.40
2023-05-23T15:35:57.826Z,30.40
2023-05-23T15:38:47.625Z,30.30
2023-05-23T15:41:36.070Z,30.30
2023-05-23T15:44:24.558Z,30.20
2023-05-23T15:47:13.016Z,30.10
2023-05-23T15:50:01.569Z,30.00
2023-05-23T15:52:50.113Z,30.10
2023-05-23T15:55:42.123Z,30.00
2023-05-23T15:58:31.601Z,29.90
2023-05-23T16:01:20.555Z,29.90
2023-05-23T16:04:09.090Z,29.80
2023-05-23T16:06:57.593Z,29.80
2023-05-23T16:09:46.072Z,29.70
2023-05-23T16:12:36.039Z,29.70
2023-05-23T16:15:24.572Z,29.60
2023-05-23T16:18:13.112Z,29.50
2023-05-23T16:21:01.848Z,29.40
2023-05-23T16:23:50.758Z,29.30
2023-05-23T16:26:39.638Z,29.30
2023-05-23T16:29:29.452Z,29.20
2023-05-23T16:32:17.937Z,29.00
2023-05-23T16:35:07.014Z,28.90
2023-05-23T16:37:55.487Z,28.80
2023-05-23T16:40:45.826Z,28.70
2023-05-23T16:43:35.014Z,28.70
2023-05-23T16:46:25.032Z,28.60
2023-05-23T16:49:13.552Z,28.60
2023-05-23T16:52:02.044Z,28.50
2023-05-23T16:54:50.578Z,28.50
2023-05-23T16:57:39.105Z,28.50
2023-05-23T17:00:28.115Z,28.40
2023-05-23T17:03:18.256Z,28.40
2023-05-23T17:06:06.977Z,28.30
2023-05-23T17:08:55.737Z,28.20
2023-05-23T17:11:44.256Z,28.20
2023-05-23T17:14:32.824Z,28.10
2023-05-23T17:17:21.481Z,28.00
2023-05-23T17:20:12.158Z,28.00
2023-05-23T17:23:01.078Z,27.90
2023-05-23T17:25:49.613Z,27.90
2023-05-23T17:28:38.173Z,27.90
2023-05-23T17:31:29.675Z,27.90
2023-05-23T17:34:19.204Z,27.70
2023-05-23T17:37:09.300Z,27.60
2023-05-23T17:39:58.017Z,27.60
2023-05-23T17:42:46.802Z,27.40
2023-05-23T17:45:36.184Z,27.30
2023-05-23T17:48:38.269Z,27.20
2023-05-23T17:51:33.450Z,27.10
2023-05-23T17:54:23.300Z,26.90
2023-05-23T17:57:11.982Z,26.80
2023-05-23T18:00:00.550Z,26.70
2023-05-23T18:02:49.133Z,26.60
2023-05-23T18:05:37.578Z,26.50
2023-05-23T18:08:26.153Z,26.50
2023-05-23T18:11:15.986Z,26.60
2023-05-23T18:14:04.550Z,26.50
2023-05-23T18:16:53.296Z,26.50
2023-05-23T18:19:42.289Z,26.30
2023-05-23T18:22:33.437Z,26.10
2023-05-23T18:25:27.286Z,26.10
2023-05-23T18:28:17.139Z,26.10
2023-05-23T18:31:05.907Z,26.10
2023-05-23T18:33:54.607Z,26.00
2023-05-23T18:36:43.194Z,25.80
2023-05-23T18:39:31.618Z,25.70
2023-05-23T18:42:20.208Z,25.70
2023-05-23T18:45:11.601Z,25.70
2023-05-23T18:48:00.136Z,25.60
2023-05-23T18:50:48.697Z,25.50
2023-05-23T18:53:37.112Z,25.40
2023-05-23T18:56:25.625Z,25.40
2023-05-23T18:59:15.849Z,25.30
2023-05-23T19:02:06.166Z,25.20
2023-05-23T19:04:54.732Z,25.00
2023-05-23T19:07:43.211Z,24.80
2023-05-23T19:10:31.713Z,24.80
2023-05-23T19:13:20.785Z,24.80
2023-05-23T19:16:10.612Z,24.80
2023-05-23T19:19:01.452Z,24.90
2023-05-23T19:21:52.663Z,24.90
2023-05-23T19:24:44.088Z,24.90
2023-05-23T19:27:33.357Z,24.80
2023-05-23T19:30:22.008Z,24.80
2023-05-23T19:33:11.220Z,24.70
2023-05-23T19:36:01.385Z,24.60
2023-05-23T19:38:49.882Z,24.60
2023-05-23T19:41:38.350Z,24.50
2023-05-23T19:44:27.115Z,24.50
2023-05-23T19:47:16.001Z,24.30
2023-05-23T19:50:05.922Z,24.20
2023-05-23T19:52:55.856Z,24.10
2023-05-23T19:55:45.842Z,24.00
2023-05-23T19:58:36.106Z,23.80
2023-05-23T20:01:25.870Z,23.80
2023-05-23T20:04:15.879Z,23.70
2023-05-23T20:07:04.589Z,23.50
2023-05-23T20:09:55.220Z,23.50
2023-05-23T20:12:44.554Z,23.30
2023-05-23T20:15:39.978Z,23.30
2023-05-23T20:18:30.169Z,23.20
2023-05-23T20:21:22.501Z,23.10
2023-05-23T20:24:11.803Z,22.90
2023-05-23T20:27:03.121Z,22.90
2023-05-23T20:29:53.011Z,22.90
2023-05-23T20:32:45.274Z,22.90
2023-05-23T20:35:36.628Z,23.00
2023-05-23T20:41:15.711Z,22.80
2023-05-23T20:44:05.602Z,22.70
2023-05-23T20:46:57.022Z,22.70
2023-05-23T20:49:47.623Z,22.80
2023-05-23T20:52:36.933Z,22.70
2023-05-23T20:55:27.104Z,22.70
2023-05-23T20:58:17.621Z,22.70
2023-05-23T21:01:08.083Z,22.70
2023-05-23T21:03:57.225Z,22.80
2023-05-23T21:06:45.728Z,22.60
2023-05-23T21:09:34.209Z,22.60
2023-05-23T21:12:22.705Z,22.70
2023-05-23T21:15:11.598Z,22.60
2023-05-23T21:18:01.442Z,22.60
2023-05-23T21:20:50.578Z,22.70
2023-05-23T21:23:39.082Z,22.60
2023-05-23T21:26:27.537Z,22.40
2023-05-23T21:29:16.069Z,22.40
2023-05-23T21:32:04.717Z,22.30
2023-05-23T21:34:54.564Z,22.30
2023-05-23T21:37:42.984Z,22.50
2023-05-23T21:40:31.414Z,22.50
2023-05-23T21:43:19.873Z,22.60
2023-05-23T21:46:08.354Z,22.60
2023-05-23T21:48:56.872Z,22.70
2023-05-23T21:51:46.770Z,22.70
2023-05-23T21:54:35.263Z,23.20
2023-05-23T21:57:23.769Z,22.60
2023-05-23T22:00:13.265Z,22.60
2023-05-23T22:05:50.718Z,22.20
2023-05-23T22:22:55.130Z,21.90
2023-05-23T22:25:44.957Z,21.70
2023-05-23T22:28:35.400Z,21.60
2023-05-23T22:31:24.393Z,21.50
2023-05-23T22:34:13.125Z,21.50
2023-05-23T22:59:37.322Z,21.70
2023-05-23T23:02:25.829Z,21.70
2023-05-23T23:05:14.849Z,21.70
2023-05-23T23:08:03.407Z,21.70
2023-05-23T23:11:11.297Z,21.80
2023-05-23T23:14:00.000Z,21.90
2023-05-23T23:16:50.523Z,21.90
2023-05-23T23:19:38.988Z,22.00
2023-05-23T23:22:27.592Z,22.00
2023-05-23T23:25:18.795Z,22.00
2023-05-23T23:28:07.587Z,21.90
2023-05-23T23:30:56.065Z,21.90
2023-05-23T23:33:46.036Z,21.90
2023-05-23T23:36:34.470Z,22.00
2023-05-23T23:39:22.970Z,22.00
2023-05-23T23:42:11.482Z,22.00
2023-05-23T23:44:59.948Z,21.90
2023-05-23T23:47:48.412Z,21.90
2023-05-23T23:50:38.335Z,21.90
2023-05-23T23:53:27.555Z,21.90
2023-05-23T23:56:16.012Z,21.90
2023-05-23T23:59:04.497Z,21.90
